Terminal Aerodrome Forecast
Issued by NWS

Home | Current Version | Previous Version | Text Only | Print | Product List | Glossary On
Versions: 1 2 3 4 5 6 7 8 9 10 11 12 13 14 15 16
000
FTUS44 KTSA 281127
TAFXNA
TAF
KXNA 281127Z 2812/2912 12011KT P6SM -RA BKN070 BKN100 OVC110
     FM281300 17013KT P6SM OVC020
     FM282100 18008KT P6SM BKN035
     FM290200 16004KT P6SM VCTS BKN040CB
      TEMPO 2902/2906 2SM TSRA BR BKN020CB
     FM290600 16011KT P6SM OVC015=

USA.gov is the U.S. government's official web portal to all federal, state and local government web resources and services.